sensor_id;sensor_type;location;lat;lon;timestamp;pressure;altitude;pressure_sealevel;temperature;humidity
17311;BME280;8773;43.300;0.394;2023-09-12T00:00:48;99441.53;;;19.76;82.67
17311;BME280;8773;43.300;0.394;2023-09-12T00:03:18;99469.91;;;20.16;81.17
17311;BME280;8773;43.300;0.394;2023-09-12T00:05:51;99534.59;;;20.31;80.27
17311;BME280;8773;43.300;0.394;2023-09-12T00:08:19;99560.75;;;20.44;79.65
17311;BME280;8773;43.300;0.394;2023-09-12T00:10:47;99605.44;;;19.85;78.43
17311;BME280;8773;43.300;0.394;2023-09-12T00:13:14;99618.97;;;19.60;79.59
17311;BME280;8773;43.300;0.394;2023-09-12T00:15:41;99587.25;;;19.29;80.81
17311;BME280;8773;43.300;0.394;2023-09-12T00:18:09;99585.25;;;19.49;79.99
17311;BME280;8773;43.300;0.394;2023-09-12T00:20:37;99593.97;;;19.58;78.50
17311;BME280;8773;43.300;0.394;2023-09-12T00:23:04;99594.78;;;19.14;80.15
17311;BME280;8773;43.300;0.394;2023-09-12T00:25:33;99592.28;;;19.19;79.54
17311;BME280;8773;43.300;0.394;2023-09-12T00:28:00;99583.16;;;19.07;79.75
17311;BME280;8773;43.300;0.394;2023-09-12T00:30:28;99581.78;;;19.35;78.76
17311;BME280;8773;43.300;0.394;2023-09-12T00:32:55;99589.69;;;19.37;78.90
17311;BME280;8773;43.300;0.394;2023-09-12T00:35:22;99589.38;;;19.14;79.75
17311;BME280;8773;43.300;0.394;2023-09-12T00:37:50;99586.09;;;19.50;78.20
17311;BME280;8773;43.300;0.394;2023-09-12T00:40:17;99591.03;;;19.21;78.64
17311;BME280;8773;43.300;0.394;2023-09-12T00:42:46;99576.22;;;19.24;78.35
17311;BME280;8773;43.300;0.394;2023-09-12T00:45:14;99570.38;;;19.27;78.06
17311;BME280;8773;43.300;0.394;2023-09-12T00:47:45;99557.75;;;19.08;78.66
17311;BME280;8773;43.300;0.394;2023-09-12T00:50:16;99555.06;;;19.08;79.30
17311;BME280;8773;43.300;0.394;2023-09-12T00:52:44;99559.94;;;19.30;78.29
17311;BME280;8773;43.300;0.394;2023-09-12T00:55:12;99560.25;;;19.54;77.66
17311;BME280;8773;43.300;0.394;2023-09-12T00:57:40;99566.84;;;19.64;76.66
17311;BME280;8773;43.300;0.394;2023-09-12T01:00:11;99558.09;;;19.62;76.17
17311;BME280;8773;43.300;0.394;2023-09-12T01:02:40;99564.19;;;19.58;76.04
17311;BME280;8773;43.300;0.394;2023-09-12T01:05:09;99562.53;;;19.12;77.29
17311;BME280;8773;43.300;0.394;2023-09-12T01:07:37;99551.84;;;18.86;78.48
17311;BME280;8773;43.300;0.394;2023-09-12T01:10:06;99520.06;;;19.13;77.60
17311;BME280;8773;43.300;0.394;2023-09-12T01:12:34;99523.38;;;19.15;77.25
17311;BME280;8773;43.300;0.394;2023-09-12T01:15:02;99530.72;;;19.01;76.72
17311;BME280;8773;43.300;0.394;2023-09-12T01:17:30;99537.03;;;19.33;76.19
17311;BME280;8773;43.300;0.394;2023-09-12T01:19:59;99548.75;;;19.58;74.93
17311;BME280;8773;43.300;0.394;2023-09-12T01:25:42;99530.66;;;19.52;75.57
17311;BME280;8773;43.300;0.394;2023-09-12T01:28:12;99545.50;;;19.43;75.75
17311;BME280;8773;43.300;0.394;2023-09-12T01:30:43;99554.38;;;19.57;75.64
17311;BME280;8773;43.300;0.394;2023-09-12T01:33:12;99565.63;;;19.60;74.45
17311;BME280;8773;43.300;0.394;2023-09-12T01:35:40;99560.38;;;19.65;74.53
17311;BME280;8773;43.300;0.394;2023-09-12T01:38:07;99558.69;;;19.33;74.93
17311;BME280;8773;43.300;0.394;2023-09-12T01:40:41;99557.06;;;19.25;75.36
17311;BME280;8773;43.300;0.394;2023-09-12T01:43:11;99562.91;;;19.22;75.90
17311;BME280;8773;43.300;0.394;2023-09-12T01:45:42;99563.22;;;18.94;77.04
17311;BME280;8773;43.300;0.394;2023-09-12T01:48:11;99561.94;;;19.03;76.77
17311;BME280;8773;43.300;0.394;2023-09-12T01:50:40;99561.88;;;19.17;75.84
17311;BME280;8773;43.300;0.394;2023-09-12T01:53:07;99554.00;;;19.09;76.13
17311;BME280;8773;43.300;0.394;2023-09-12T01:55:37;99556.31;;;19.05;76.26
17311;BME280;8773;43.300;0.394;2023-09-12T01:58:05;99557.28;;;18.79;77.16
17311;BME280;8773;43.300;0.394;2023-09-12T02:00:34;99551.16;;;18.90;77.03
17311;BME280;8773;43.300;0.394;2023-09-12T02:03:03;99551.50;;;18.49;78.78
17311;BME280;8773;43.300;0.394;2023-09-12T02:05:31;99543.63;;;18.48;79.37
17311;BME280;8773;43.300;0.394;2023-09-12T02:07:59;99545.63;;;18.79;78.13
17311;BME280;8773;43.300;0.394;2023-09-12T02:10:26;99536.66;;;18.85;78.00
17311;BME280;8773;43.300;0.394;2023-09-12T02:12:54;99538.94;;;18.81;78.42
17311;BME280;8773;43.300;0.394;2023-09-12T02:15:21;99539.66;;;18.50;79.39
17311;BME280;8773;43.300;0.394;2023-09-12T02:17:51;99534.03;;;18.52;79.56
17311;BME280;8773;43.300;0.394;2023-09-12T02:20:19;99536.56;;;18.40;79.68
17311;BME280;8773;43.300;0.394;2023-09-12T02:22:46;99541.25;;;18.78;78.70
17311;BME280;8773;43.300;0.394;2023-09-12T02:25:14;99549.00;;;18.61;79.63
17311;BME280;8773;43.300;0.394;2023-09-12T02:27:43;99531.72;;;18.62;79.37
17311;BME280;8773;43.300;0.394;2023-09-12T02:30:11;99528.47;;;18.27;80.29
17311;BME280;8773;43.300;0.394;2023-09-12T02:32:42;99524.06;;;18.46;80.23
17311;BME280;8773;43.300;0.394;2023-09-12T02:35:11;99508.66;;;18.46;80.10
17311;BME280;8773;43.300;0.394;2023-09-12T02:37:38;99499.72;;;18.52;79.63
17311;BME280;8773;43.300;0.394;2023-09-12T02:40:07;99493.06;;;18.55;79.27
17311;BME280;8773;43.300;0.394;2023-09-12T02:42:34;99510.88;;;18.76;78.97
17311;BME280;8773;43.300;0.394;2023-09-12T02:45:02;99502.81;;;19.07;77.92
17311;BME280;8773;43.300;0.394;2023-09-12T02:47:30;99496.56;;;18.68;78.12
17311;BME280;8773;43.300;0.394;2023-09-12T02:49:57;99506.28;;;19.21;76.77
17311;BME280;8773;43.300;0.394;2023-09-12T02:52:26;99500.59;;;19.29;76.35
17311;BME280;8773;43.300;0.394;2023-09-12T02:54:53;99505.47;;;19.14;77.00
17311;BME280;8773;43.300;0.394;2023-09-12T02:57:21;99513.75;;;19.32;75.99
17311;BME280;8773;43.300;0.394;2023-09-12T02:59:48;99522.41;;;19.41;75.56
17311;BME280;8773;43.300;0.394;2023-09-12T03:02:15;99520.84;;;19.20;76.19
17311;BME280;8773;43.300;0.394;2023-09-12T03:04:43;99524.97;;;19.29;75.80
17311;BME280;8773;43.300;0.394;2023-09-12T03:07:10;99535.88;;;19.16;76.72
17311;BME280;8773;43.300;0.394;2023-09-12T03:09:39;99552.16;;;19.02;77.24
17311;BME280;8773;43.300;0.394;2023-09-12T03:12:07;99561.63;;;18.80;78.10
17311;BME280;8773;43.300;0.394;2023-09-12T03:14:34;99553.03;;;18.90;77.91
17311;BME280;8773;43.300;0.394;2023-09-12T03:17:02;99566.69;;;19.15;76.86
17311;BME280;8773;43.300;0.394;2023-09-12T03:19:30;99553.88;;;18.90;77.43
17311;BME280;8773;43.300;0.394;2023-09-12T03:21:57;99555.75;;;18.90;78.03
17311;BME280;8773;43.300;0.394;2023-09-12T03:24:25;99561.31;;;19.01;77.10
17311;BME280;8773;43.300;0.394;2023-09-12T03:26:54;99561.13;;;19.03;77.08
17311;BME280;8773;43.300;0.394;2023-09-12T03:29:24;99553.53;;;18.80;78.34
17311;BME280;8773;43.300;0.394;2023-09-12T03:31:51;99565.66;;;18.58;79.16
17311;BME280;8773;43.300;0.394;2023-09-12T03:34:19;99559.25;;;19.03;77.28
17311;BME280;8773;43.300;0.394;2023-09-12T03:36:46;99557.09;;;19.19;77.21
17311;BME280;8773;43.300;0.394;2023-09-12T03:39:13;99551.44;;;18.82;78.14
17311;BME280;8773;43.300;0.394;2023-09-12T03:41:41;99551.97;;;18.97;77.73
17311;BME280;8773;43.300;0.394;2023-09-12T03:44:09;99545.47;;;19.12;77.36
17311;BME280;8773;43.300;0.394;2023-09-12T03:46:37;99532.59;;;19.00;77.20
17311;BME280;8773;43.300;0.394;2023-09-12T03:49:04;99532.97;;;19.11;77.12
17311;BME280;8773;43.300;0.394;2023-09-12T03:51:33;99530.81;;;19.26;76.87
17311;BME280;8773;43.300;0.394;2023-09-12T03:54:01;99531.75;;;19.07;77.14
17311;BME280;8773;43.300;0.394;2023-09-12T03:56:28;99528.84;;;19.01;77.25
17311;BME280;8773;43.300;0.394;2023-09-12T03:58:58;99537.53;;;18.72;79.02
17311;BME280;8773;43.300;0.394;2023-09-12T04:01:26;99519.91;;;18.50;79.79
17311;BME280;8773;43.300;0.394;2023-09-12T04:03:54;99529.19;;;18.80;79.46
17311;BME280;8773;43.300;0.394;2023-09-12T04:06:22;99529.28;;;18.98;78.33
17311;BME280;8773;43.300;0.394;2023-09-12T04:08:49;99532.00;;;18.92;78.30
17311;BME280;8773;43.300;0.394;2023-09-12T04:11:17;99519.16;;;18.87;78.17
17311;BME280;8773;43.300;0.394;2023-09-12T04:13:54;99505.09;;;18.65;78.64
17311;BME280;8773;43.300;0.394;2023-09-12T04:16:21;99509.31;;;18.93;78.13
17311;BME280;8773;43.300;0.394;2023-09-12T04:18:50;99505.03;;;18.85;78.20
17311;BME280;8773;43.300;0.394;2023-09-12T04:21:18;99506.78;;;19.05;77.57
17311;BME280;8773;43.300;0.394;2023-09-12T04:23:45;99505.63;;;18.87;78.09
17311;BME280;8773;43.300;0.394;2023-09-12T04:26:12;99509.00;;;18.76;78.60
17311;BME280;8773;43.300;0.394;2023-09-12T04:28:40;99507.22;;;18.50;79.22
17311;BME280;8773;43.300;0.394;2023-09-12T04:31:08;99511.28;;;18.79;78.37
17311;BME280;8773;43.300;0.394;2023-09-12T04:33:35;99503.59;;;18.76;78.33
17311;BME280;8773;43.300;0.394;2023-09-12T04:36:04;99504.63;;;18.82;77.81
17311;BME280;8773;43.300;0.394;2023-09-12T04:38:32;99515.84;;;18.85;77.64
17311;BME280;8773;43.300;0.394;2023-09-12T04:41:01;99517.13;;;18.76;78.24
17311;BME280;8773;43.300;0.394;2023-09-12T04:43:29;99535.09;;;19.02;77.51
17311;BME280;8773;43.300;0.394;2023-09-12T04:45:56;99532.97;;;19.11;77.57
17311;BME280;8773;43.300;0.394;2023-09-12T04:48:24;99533.94;;;18.85;77.96
17311;BME280;8773;43.300;0.394;2023-09-12T04:50:51;99532.97;;;19.11;77.19
17311;BME280;8773;43.300;0.394;2023-09-12T04:53:20;99532.78;;;19.06;77.08
17311;BME280;8773;43.300;0.394;2023-09-12T04:55:48;99532.97;;;18.66;78.23
17311;BME280;8773;43.300;0.394;2023-09-12T04:58:15;99544.25;;;18.43;79.49
17311;BME280;8773;43.300;0.394;2023-09-12T05:00:42;99554.41;;;18.54;79.05
17311;BME280;8773;43.300;0.394;2023-09-12T05:03:10;99556.94;;;18.43;79.10
17311;BME280;8773;43.300;0.394;2023-09-12T05:05:37;99557.31;;;18.59;78.67
17311;BME280;8773;43.300;0.394;2023-09-12T05:08:05;99560.44;;;18.63;78.78
17311;BME280;8773;43.300;0.394;2023-09-12T05:10:35;99550.44;;;18.63;78.79
17311;BME280;8773;43.300;0.394;2023-09-12T05:13:02;99556.59;;;18.90;77.79
17311;BME280;8773;43.300;0.394;2023-09-12T05:15:30;99548.47;;;18.90;77.59
17311;BME280;8773;43.300;0.394;2023-09-12T05:17:57;99550.94;;;18.98;77.02
17311;BME280;8773;43.300;0.394;2023-09-12T05:20:25;99559.13;;;19.30;76.21
17311;BME280;8773;43.300;0.394;2023-09-12T05:22:52;99553.19;;;19.46;75.88
17311;BME280;8773;43.300;0.394;2023-09-12T05:25:19;99557.44;;;19.35;75.95
17311;BME280;8773;43.300;0.394;2023-09-12T05:27:48;99555.13;;;19.39;75.38
17311;BME280;8773;43.300;0.394;2023-09-12T05:30:16;99562.78;;;19.49;76.04
17311;BME280;8773;43.300;0.394;2023-09-12T05:32:43;99562.38;;;19.45;76.23
17311;BME280;8773;43.300;0.394;2023-09-12T05:35:11;99553.75;;;19.61;75.90
17311;BME280;8773;43.300;0.394;2023-09-12T05:37:48;99559.59;;;19.83;75.50
17311;BME280;8773;43.300;0.394;2023-09-12T05:40:16;99569.28;;;19.97;75.04
17311;BME280;8773;43.300;0.394;2023-09-12T05:42:43;99559.50;;;19.96;74.62
17311;BME280;8773;43.300;0.394;2023-09-12T05:45:12;99553.63;;;19.99;73.98
17311;BME280;8773;43.300;0.394;2023-09-12T05:47:40;99565.75;;;19.97;74.02
17311;BME280;8773;43.300;0.394;2023-09-12T05:50:08;99566.38;;;19.99;73.65
17311;BME280;8773;43.300;0.394;2023-09-12T05:52:35;99558.13;;;19.87;74.17
17311;BME280;8773;43.300;0.394;2023-09-12T05:55:03;99547.84;;;19.96;74.14
17311;BME280;8773;43.300;0.394;2023-09-12T05:57:31;99552.25;;;19.90;74.18
17311;BME280;8773;43.300;0.394;2023-09-12T05:59:59;99562.91;;;19.22;76.90
17311;BME280;8773;43.300;0.394;2023-09-12T06:02:28;99560.84;;;19.18;77.10
17311;BME280;8773;43.300;0.394;2023-09-12T06:04:55;99559.53;;;18.89;78.21
17311;BME280;8773;43.300;0.394;2023-09-12T06:07:23;99551.28;;;19.15;77.13
17311;BME280;8773;43.300;0.394;2023-09-12T06:09:53;99564.81;;;19.53;76.47
17311;BME280;8773;43.300;0.394;2023-09-12T06:12:20;99562.69;;;19.24;77.09
17311;BME280;8773;43.300;0.394;2023-09-12T06:14:48;99558.69;;;19.33;76.40
17311;BME280;8773;43.300;0.394;2023-09-12T06:17:15;99577.81;;;19.38;76.43
17311;BME280;8773;43.300;0.394;2023-09-12T06:19:44;99583.31;;;19.63;76.05
17311;BME280;8773;43.300;0.394;2023-09-12T06:22:11;99597.25;;;19.66;75.43
17311;BME280;8773;43.300;0.394;2023-09-12T06:24:42;99597.94;;;19.55;75.79
17311;BME280;8773;43.300;0.394;2023-09-12T06:27:09;99597.25;;;19.66;75.53
17311;BME280;8773;43.300;0.394;2023-09-12T06:29:36;99603.00;;;19.77;75.34
17311;BME280;8773;43.300;0.394;2023-09-12T06:32:04;99607.09;;;19.86;74.97
17311;BME280;8773;43.300;0.394;2023-09-12T06:34:31;99608.72;;;19.24;76.30
17311;BME280;8773;43.300;0.394;2023-09-12T06:37:00;99612.91;;;19.13;76.94
17311;BME280;8773;43.300;0.394;2023-09-12T06:39:27;99606.66;;;19.13;76.99
17311;BME280;8773;43.300;0.394;2023-09-12T06:41:55;99613.91;;;19.32;76.77
17311;BME280;8773;43.300;0.394;2023-09-12T06:44:25;99609.81;;;19.54;75.56
17311;BME280;8773;43.300;0.394;2023-09-12T06:46:52;99623.13;;;19.62;75.26
17311;BME280;8773;43.300;0.394;2023-09-12T06:49:20;99635.19;;;19.66;75.11
17311;BME280;8773;43.300;0.394;2023-09-12T06:51:47;99633.13;;;19.62;75.00
17311;BME280;8773;43.300;0.394;2023-09-12T06:54:18;99630.78;;;19.97;74.34
17311;BME280;8773;43.300;0.394;2023-09-12T06:56:46;99641.84;;;19.64;75.25
17311;BME280;8773;43.300;0.394;2023-09-12T06:59:13;99635.84;;;19.87;74.83
17311;BME280;8773;43.300;0.394;2023-09-12T07:01:41;99647.88;;;19.21;76.79
17311;BME280;8773;43.300;0.394;2023-09-12T07:04:08;99648.34;;;19.56;76.19
17311;BME280;8773;43.300;0.394;2023-09-12T07:06:36;99646.00;;;19.98;73.93
17311;BME280;8773;43.300;0.394;2023-09-12T07:09:03;99653.25;;;20.36;73.13
17311;BME280;8773;43.300;0.394;2023-09-12T07:11:33;99649.47;;;20.37;73.32
17311;BME280;8773;43.300;0.394;2023-09-12T07:14:00;99647.44;;;20.57;72.60
17311;BME280;8773;43.300;0.394;2023-09-12T07:16:28;99635.50;;;21.19;70.74
17311;BME280;8773;43.300;0.394;2023-09-12T07:18:55;99640.63;;;21.46;69.87
17311;BME280;8773;43.300;0.394;2023-09-12T07:21:23;99646.53;;;21.73;68.95
17311;BME280;8773;43.300;0.394;2023-09-12T07:23:50;99642.75;;;21.74;68.33
17311;BME280;8773;43.300;0.394;2023-09-12T07:26:20;99640.91;;;21.86;68.30
17311;BME280;8773;43.300;0.394;2023-09-12T07:28:49;99653.75;;;22.20;68.08
17311;BME280;8773;43.300;0.394;2023-09-12T07:31:19;99644.47;;;22.63;65.81
17311;BME280;8773;43.300;0.394;2023-09-12T07:33:47;99654.19;;;22.71;65.19
17311;BME280;8773;43.300;0.394;2023-09-12T07:36:14;99666.09;;;23.05;64.58
17311;BME280;8773;43.300;0.394;2023-09-12T07:38:42;99654.09;;;23.69;63.76
17311;BME280;8773;43.300;0.394;2023-09-12T07:41:10;99653.50;;;24.41;61.91
17311;BME280;8773;43.300;0.394;2023-09-12T07:43:37;99666.06;;;24.75;60.35
17311;BME280;8773;43.300;0.394;2023-09-12T07:46:09;99670.03;;;24.68;59.04
17311;BME280;8773;43.300;0.394;2023-09-12T07:48:36;99667.41;;;24.11;60.91
17311;BME280;8773;43.300;0.394;2023-09-12T07:51:11;99665.38;;;24.35;59.68
17311;BME280;8773;43.300;0.394;2023-09-12T07:53:39;99667.50;;;24.44;59.62
17311;BME280;8773;43.300;0.394;2023-09-12T07:56:08;99668.88;;;23.85;60.61
17311;BME280;8773;43.300;0.394;2023-09-12T07:58:36;99669.50;;;24.04;61.35
17311;BME280;8773;43.300;0.394;2023-09-12T08:01:06;99676.63;;;24.05;60.49
17311;BME280;8773;43.300;0.394;2023-09-12T08:03:36;99674.41;;;23.90;61.83
17311;BME280;8773;43.300;0.394;2023-09-12T08:06:05;99679.09;;;23.66;62.87
17311;BME280;8773;43.300;0.394;2023-09-12T08:08:32;99693.47;;;24.02;61.81
17311;BME280;8773;43.300;0.394;2023-09-12T08:11:00;99695.75;;;24.38;61.20
17311;BME280;8773;43.300;0.394;2023-09-12T08:13:28;99693.94;;;24.60;60.96
17311;BME280;8773;43.300;0.394;2023-09-12T08:15:56;99695.28;;;24.13;61.02
17311;BME280;8773;43.300;0.394;2023-09-12T08:18:27;99696.13;;;24.30;60.67
17311;BME280;8773;43.300;0.394;2023-09-12T08:20:57;99710.19;;;24.50;60.69
17311;BME280;8773;43.300;0.394;2023-09-12T08:23:25;99723.03;;;23.93;61.40
17311;BME280;8773;43.300;0.394;2023-09-12T08:25:52;99733.16;;;23.17;63.66
17311;BME280;8773;43.300;0.394;2023-09-12T08:28:19;99729.06;;;23.43;64.44
17311;BME280;8773;43.300;0.394;2023-09-12T08:30:47;99734.88;;;23.47;64.29
17311;BME280;8773;43.300;0.394;2023-09-12T08:33:14;99729.59;;;23.80;62.25
17311;BME280;8773;43.300;0.394;2023-09-12T08:35:42;99726.50;;;23.77;62.57
17311;BME280;8773;43.300;0.394;2023-09-12T08:38:11;99721.28;;;24.32;60.91
17311;BME280;8773;43.300;0.394;2023-09-12T08:40:38;99726.53;;;23.65;62.49
17311;BME280;8773;43.300;0.394;2023-09-12T08:43:06;99717.47;;;24.33;61.30
17311;BME280;8773;43.300;0.394;2023-09-12T08:45:35;99720.53;;;23.51;61.75
17311;BME280;8773;43.300;0.394;2023-09-12T08:48:04;99722.13;;;23.76;61.52
17311;BME280;8773;43.300;0.394;2023-09-12T08:50:32;99717.53;;;24.05;60.48
17311;BME280;8773;43.300;0.394;2023-09-12T08:53:00;99723.19;;;24.32;60.71
17311;BME280;8773;43.300;0.394;2023-09-12T08:55:36;99730.34;;;24.04;60.78
17311;BME280;8773;43.300;0.394;2023-09-12T08:58:05;99729.00;;;23.67;61.43
17311;BME280;8773;43.300;0.394;2023-09-12T09:00:33;99731.81;;;23.43;63.20
17311;BME280;8773;43.300;0.394;2023-09-12T09:03:01;99727.63;;;23.52;61.88
17311;BME280;8773;43.300;0.394;2023-09-12T09:05:29;99734.03;;;23.58;62.42
17311;BME280;8773;43.300;0.394;2023-09-12T09:07:58;99737.59;;;23.58;62.33
17311;BME280;8773;43.300;0.394;2023-09-12T09:10:27;99736.09;;;23.68;62.13
17311;BME280;8773;43.300;0.394;2023-09-12T09:13:16;99729.47;;;23.75;61.64
17311;BME280;8773;43.300;0.394;2023-09-12T09:15:43;99728.44;;;23.65;62.45
17311;BME280;8773;43.300;0.394;2023-09-12T09:18:11;99730.56;;;23.74;60.86
17311;BME280;8773;43.300;0.394;2023-09-12T09:20:42;99729.47;;;23.75;60.90
17311;BME280;8773;43.300;0.394;2023-09-12T09:23:10;99732.22;;;23.75;61.23
17311;BME280;8773;43.300;0.394;2023-09-12T09:25:40;99735.22;;;24.19;61.20
17311;BME280;8773;43.300;0.394;2023-09-12T09:28:17;99732.09;;;24.72;60.34
17311;BME280;8773;43.300;0.394;2023-09-12T09:30:45;99732.88;;;25.45;58.62
17311;BME280;8773;43.300;0.394;2023-09-12T09:33:14;99740.53;;;25.86;56.27
17311;BME280;8773;43.300;0.394;2023-09-12T09:35:43;99741.72;;;25.69;55.01
17311;BME280;8773;43.300;0.394;2023-09-12T09:38:13;99742.00;;;25.12;56.15
17311;BME280;8773;43.300;0.394;2023-09-12T09:40:40;99746.53;;;25.23;57.19
17311;BME280;8773;43.300;0.394;2023-09-12T09:43:20;99734.44;;;25.57;56.82
17311;BME280;8773;43.300;0.394;2023-09-12T09:45:48;99737.53;;;25.66;55.91
17311;BME280;8773;43.300;0.394;2023-09-12T09:48:19;99741.03;;;25.62;54.38
17311;BME280;8773;43.300;0.394;2023-09-12T09:50:47;99744.84;;;25.39;56.14
17311;BME280;8773;43.300;0.394;2023-09-12T09:53:14;99749.94;;;24.97;56.23
17311;BME280;8773;43.300;0.394;2023-09-12T09:55:42;99759.56;;;25.16;56.15
17311;BME280;8773;43.300;0.394;2023-09-12T09:58:14;99762.38;;;25.43;56.38
17311;BME280;8773;43.300;0.394;2023-09-12T10:00:46;99768.41;;;25.23;56.59
17311;BME280;8773;43.300;0.394;2023-09-12T10:03:18;99759.84;;;25.75;57.03
17311;BME280;8773;43.300;0.394;2023-09-12T10:05:46;99767.28;;;25.79;55.04
17311;BME280;8773;43.300;0.394;2023-09-12T10:08:17;99754.69;;;25.78;56.17
17311;BME280;8773;43.300;0.394;2023-09-12T10:10:47;99756.13;;;25.86;56.66
17311;BME280;8773;43.300;0.394;2023-09-12T10:13:15;99762.97;;;26.10;55.75
17311;BME280;8773;43.300;0.394;2023-09-12T10:15:45;99755.31;;;26.34;53.97
17311;BME280;8773;43.300;0.394;2023-09-12T10:18:18;99764.69;;;26.16;55.03
17311;BME280;8773;43.300;0.394;2023-09-12T10:21:01;99765.13;;;25.43;57.57
17311;BME280;8773;43.300;0.394;2023-09-12T10:23:36;99765.44;;;25.46;56.68
17311;BME280;8773;43.300;0.394;2023-09-12T10:26:05;99761.88;;;25.07;57.36
17311;BME280;8773;43.300;0.394;2023-09-12T10:28:32;99769.06;;;24.97;57.91
17311;BME280;8773;43.300;0.394;2023-09-12T10:31:01;99758.81;;;24.70;58.73
17311;BME280;8773;43.300;0.394;2023-09-12T10:33:30;99766.34;;;24.63;59.17
17311;BME280;8773;43.300;0.394;2023-09-12T10:35:58;99752.59;;;24.91;59.97
17311;BME280;8773;43.300;0.394;2023-09-12T10:38:30;99765.19;;;24.92;59.72
17311;BME280;8773;43.300;0.394;2023-09-12T10:41:00;99762.88;;;24.84;59.80
17311;BME280;8773;43.300;0.394;2023-09-12T10:43:28;99772.88;;;24.62;61.66
17311;BME280;8773;43.300;0.394;2023-09-12T10:45:57;99768.34;;;24.84;61.24
17311;BME280;8773;43.300;0.394;2023-09-12T10:48:26;99774.84;;;25.00;60.67
17311;BME280;8773;43.300;0.394;2023-09-12T10:50:56;99762.72;;;25.08;60.56
17311;BME280;8773;43.300;0.394;2023-09-12T10:53:26;99763.28;;;25.26;59.49
17311;BME280;8773;43.300;0.394;2023-09-12T10:55:58;99758.06;;;25.25;60.53
17311;BME280;8773;43.300;0.394;2023-09-12T10:58:26;99751.28;;;24.77;60.29
17311;BME280;8773;43.300;0.394;2023-09-12T11:01:21;99753.19;;;24.93;60.23
17311;BME280;8773;43.300;0.394;2023-09-12T11:03:51;99747.53;;;25.17;59.82
17311;BME280;8773;43.300;0.394;2023-09-12T11:06:22;99749.94;;;25.30;58.92
17311;BME280;8773;43.300;0.394;2023-09-12T11:09:16;99749.03;;;25.46;58.51
17311;BME280;8773;43.300;0.394;2023-09-12T11:11:46;99737.50;;;25.39;58.63
17311;BME280;8773;43.300;0.394;2023-09-12T11:14:14;99739.69;;;25.42;57.89
17311;BME280;8773;43.300;0.394;2023-09-12T11:16:41;99743.88;;;25.50;58.33
17311;BME280;8773;43.300;0.394;2023-09-12T11:19:14;99748.75;;;25.86;57.62
17311;BME280;8773;43.300;0.394;2023-09-12T11:21:43;99744.28;;;26.02;57.99
17311;BME280;8773;43.300;0.394;2023-09-12T11:24:12;99746.06;;;25.91;57.46
17311;BME280;8773;43.300;0.394;2023-09-12T11:26:53;99739.94;;;26.06;56.75
17311;BME280;8773;43.300;0.394;2023-09-12T11:29:20;99741.69;;;25.90;55.94
17311;BME280;8773;43.300;0.394;2023-09-12T11:31:53;99740.22;;;25.39;57.08
17311;BME280;8773;43.300;0.394;2023-09-12T11:34:24;99734.44;;;25.57;58.39
17311;BME280;8773;43.300;0.394;2023-09-12T11:36:55;99737.91;;;25.70;58.26
17311;BME280;8773;43.300;0.394;2023-09-12T11:39:27;99726.44;;;25.73;58.59
17311;BME280;8773;43.300;0.394;2023-09-12T11:41:56;99722.88;;;25.72;57.35
17311;BME280;8773;43.300;0.394;2023-09-12T11:44:23;99728.34;;;24.78;59.08
17311;BME280;8773;43.300;0.394;2023-09-12T11:46:52;99723.59;;;25.46;58.35
17311;BME280;8773;43.300;0.394;2023-09-12T11:49:19;99712.84;;;25.78;56.86
17311;BME280;8773;43.300;0.394;2023-09-12T11:51:50;99714.81;;;26.09;56.47
17311;BME280;8773;43.300;0.394;2023-09-12T11:54:19;99706.06;;;26.12;56.18
17311;BME280;8773;43.300;0.394;2023-09-12T11:56:47;99694.59;;;26.42;54.80
17311;BME280;8773;43.300;0.394;2023-09-12T11:59:15;99694.31;;;26.12;55.41
17311;BME280;8773;43.300;0.394;2023-09-12T12:01:43;99699.88;;;26.49;55.35
17311;BME280;8773;43.300;0.394;2023-09-12T12:04:10;99700.16;;;26.20;55.78
17311;BME280;8773;43.300;0.394;2023-09-12T12:06:38;99691.81;;;26.69;55.11
17311;BME280;8773;43.300;0.394;2023-09-12T12:09:07;99689.84;;;26.97;54.24
17311;BME280;8773;43.300;0.394;2023-09-12T12:11:35;99693.09;;;26.94;53.71
17311;BME280;8773;43.300;0.394;2023-09-12T12:14:11;99699.69;;;26.98;54.18
17311;BME280;8773;43.300;0.394;2023-09-12T12:16:38;99698.09;;;27.02;53.82
17311;BME280;8773;43.300;0.394;2023-09-12T12:19:06;99694.78;;;27.00;53.59
17311;BME280;8773;43.300;0.394;2023-09-12T12:21:33;99695.94;;;27.09;53.41
17311;BME280;8773;43.300;0.394;2023-09-12T12:24:04;99693.59;;;26.90;53.03
17311;BME280;8773;43.300;0.394;2023-09-12T12:26:34;99684.88;;;26.94;53.41
17311;BME280;8773;43.300;0.394;2023-09-12T12:29:02;99688.59;;;27.24;53.17
17311;BME280;8773;43.300;0.394;2023-09-12T12:31:33;99688.06;;;27.28;51.53
17311;BME280;8773;43.300;0.394;2023-09-12T12:34:00;99692.63;;;27.07;52.19
17311;BME280;8773;43.300;0.394;2023-09-12T12:36:48;99688.84;;;26.12;54.68
17311;BME280;8773;43.300;0.394;2023-09-12T12:39:24;99679.84;;;26.85;53.20
17311;BME280;8773;43.300;0.394;2023-09-12T12:41:53;99696.38;;;27.43;52.77
17311;BME280;8773;43.300;0.394;2023-09-12T12:44:21;99692.66;;;27.69;51.60
17311;BME280;8773;43.300;0.394;2023-09-12T12:46:49;99689.06;;;27.53;50.06
17311;BME280;8773;43.300;0.394;2023-09-12T12:49:17;99691.91;;;27.94;50.61
17311;BME280;8773;43.300;0.394;2023-09-12T12:51:45;99686.72;;;27.98;50.73
17311;BME280;8773;43.300;0.394;2023-09-12T12:54:13;99682.09;;;28.34;50.19
17311;BME280;8773;43.300;0.394;2023-09-12T12:56:43;99676.03;;;28.11;49.24
17311;BME280;8773;43.300;0.394;2023-09-12T12:59:15;99678.19;;;27.94;50.54
17311;BME280;8773;43.300;0.394;2023-09-12T13:01:44;99683.03;;;27.62;50.99
17311;BME280;8773;43.300;0.394;2023-09-12T13:04:11;99688.31;;;27.21;52.14
17311;BME280;8773;43.300;0.394;2023-09-12T13:06:39;99700.97;;;25.29;56.84
17311;BME280;8773;43.300;0.394;2023-09-12T13:09:06;99699.50;;;25.65;56.13
17311;BME280;8773;43.300;0.394;2023-09-12T13:11:34;99698.66;;;25.37;57.30
17311;BME280;8773;43.300;0.394;2023-09-12T13:14:01;99685.94;;;25.70;57.23
17311;BME280;8773;43.300;0.394;2023-09-12T13:16:30;99683.69;;;25.67;56.56
17311;BME280;8773;43.300;0.394;2023-09-12T13:18:58;99686.13;;;25.90;55.53
17311;BME280;8773;43.300;0.394;2023-09-12T13:21:25;99690.88;;;25.73;56.42